Shawnee, Oklahoma
Current Conditions -  °F | °C
As of 3:58 AM on Friday 24 Oct 2014 (Local Time) from KTIK Reporting Station
Clear Clear  
Wind Chill: 59°   Ceiling: Unl
Heat Index: 59°   Visibility: 10mi
Dew Point: 56°   Wind: 9mph
Humidity: 88%   Direction: 160°SSE
Pressure: 30.09"   Gusts: NA
Location:  35.33°N, 96.92°W
Report Text: KTIK 240858Z AUTO 16008KT 10SM CLR 15/13 A3009 RMK AO2 SLP187 T01500131 50001 $
Loading
Personal Weather Stations






























Interactive Weather Map
Tropical Storm Tracking
New forecast layout! Learn more

10-Day Weather Forecast

Advertisements
Track Severe Weather on mobile